createdAt,value
2023-04-15T00:01:12.086Z,9.50
2023-04-15T00:03:39.413Z,9.60
2023-04-15T00:06:07.044Z,9.40
2023-04-15T00:08:34.289Z,9.50
2023-04-15T00:11:03.425Z,9.50
2023-04-15T00:13:30.815Z,9.70
2023-04-15T00:15:58.235Z,9.70
2023-04-15T00:18:25.805Z,9.50
2023-04-15T00:20:53.590Z,9.40
2023-04-15T00:23:20.629Z,9.40
2023-04-15T00:25:47.677Z,9.40
2023-04-15T00:28:14.787Z,9.70
2023-04-15T00:30:42.449Z,9.60
2023-04-15T00:33:09.839Z,9.50
2023-04-15T00:35:37.661Z,9.50
2023-04-15T00:38:05.735Z,9.70
2023-04-15T00:40:33.526Z,9.60
2023-04-15T00:43:00.644Z,9.70
2023-04-15T00:45:28.217Z,9.50
2023-04-15T00:47:55.879Z,9.70
2023-04-15T00:50:22.927Z,9.60
2023-04-15T00:52:49.898Z,9.50
2023-04-15T00:55:16.938Z,9.60
2023-04-15T00:57:44.850Z,9.60
2023-04-15T01:00:12.313Z,9.60
2023-04-15T01:02:39.448Z,9.40
2023-04-15T01:05:07.758Z,9.40
2023-04-15T01:07:34.910Z,9.40
2023-04-15T01:10:03.345Z,9.30
2023-04-15T01:12:33.878Z,9.30
2023-04-15T01:15:02.307Z,9.30
2023-04-15T01:17:29.562Z,9.30
2023-04-15T01:19:59.779Z,9.20
2023-04-15T01:22:28.832Z,9.20
2023-04-15T01:25:06.258Z,9.10
2023-04-15T01:27:35.697Z,9.10
2023-04-15T01:30:05.411Z,9.30
2023-04-15T01:32:32.375Z,9.20
2023-04-15T01:34:59.799Z,9.10
2023-04-15T01:37:27.586Z,9.10
2023-04-15T01:39:54.688Z,9.30
2023-04-15T01:42:22.501Z,9.10
2023-04-15T01:44:49.674Z,9.10
2023-04-15T01:47:16.803Z,9.10
2023-04-15T01:49:44.013Z,9.00
2023-04-15T01:52:11.015Z,9.00
2023-04-15T01:54:38.081Z,9.00
2023-04-15T01:57:05.771Z,9.20
2023-04-15T01:59:33.251Z,9.10
2023-04-15T02:02:00.585Z,8.90
2023-04-15T02:04:28.150Z,8.90
2023-04-15T02:06:55.137Z,8.90
2023-04-15T02:09:22.393Z,9.10
2023-04-15T02:11:49.640Z,8.90
2023-04-15T02:14:16.704Z,8.90
2023-04-15T02:16:43.878Z,8.90
2023-04-15T02:19:11.051Z,8.80
2023-04-15T02:21:38.198Z,8.80
2023-04-15T02:24:05.559Z,8.90
2023-04-15T02:26:33.463Z,8.90
2023-04-15T02:29:00.782Z,8.80
2023-04-15T02:31:28.017Z,9.00
2023-04-15T02:33:55.126Z,9.00
2023-04-15T02:36:22.124Z,9.00
2023-04-15T02:38:49.035Z,8.80
2023-04-15T02:41:16.068Z,9.00
2023-04-15T02:43:43.045Z,8.80
2023-04-15T02:46:14.794Z,8.80
2023-04-15T02:48:42.220Z,8.80
2023-04-15T02:51:17.444Z,9.10
2023-04-15T02:53:44.445Z,8.80
2023-04-15T02:56:11.996Z,8.80
2023-04-15T02:58:40.008Z,8.90
2023-04-15T03:01:08.819Z,9.00
2023-04-15T03:03:36.069Z,8.80
2023-04-15T03:06:03.151Z,9.00
2023-04-15T03:08:30.462Z,8.60
2023-04-15T03:11:03.934Z,8.90
2023-04-15T03:13:31.518Z,8.90
2023-04-15T08:27:19.392Z,9.70
2023-04-15T08:30:02.738Z,9.70
2023-04-15T08:44:47.386Z,9.70
2023-04-15T08:47:26.163Z,9.70
2023-04-15T08:50:03.395Z,9.50
2023-04-15T08:52:38.378Z,9.60
2023-04-15T08:55:12.910Z,9.60
2023-04-15T08:57:45.177Z,9.60
2023-04-15T09:56:03.554Z,9.90
2023-04-15T09:58:33.831Z,9.90
2023-04-15T10:01:03.254Z,10.00
2023-04-15T10:03:32.277Z,10.20
2023-04-15T10:06:00.992Z,10.00
2023-04-15T10:08:33.654Z,10.00
2023-04-15T10:11:05.011Z,10.00
2023-04-15T10:13:37.445Z,10.10
2023-04-15T10:16:10.870Z,10.20
2023-04-15T10:18:54.326Z,10.20
2023-04-15T10:21:26.949Z,10.20
2023-04-15T10:23:53.947Z,10.30
2023-04-15T10:26:21.734Z,10.60
2023-04-15T10:28:49.222Z,10.50
2023-04-15T10:31:18.447Z,10.40
2023-04-15T10:33:47.461Z,10.60
2023-04-15T10:36:15.395Z,10.50
2023-04-15T10:38:44.117Z,10.50
2023-04-15T10:41:31.415Z,10.60
2023-04-15T10:44:03.724Z,10.50
2023-04-15T10:46:40.214Z,10.80
2023-04-15T10:49:25.125Z,10.40
2023-04-15T10:51:57.192Z,10.50
2023-04-15T10:54:27.244Z,10.80
2023-04-15T10:57:06.642Z,10.60
2023-04-15T10:59:37.515Z,10.60
2023-04-15T11:02:06.825Z,10.60
2023-04-15T11:04:53.732Z,11.00
2023-04-15T11:07:47.161Z,10.70
2023-04-15T11:10:14.557Z,10.70
2023-04-15T11:12:42.049Z,10.70
2023-04-15T11:15:31.083Z,10.70
2023-04-15T11:18:20.338Z,10.70
2023-04-15T11:20:50.893Z,10.70
2023-04-15T11:23:21.135Z,10.60
2023-04-15T11:25:48.728Z,10.60
2023-04-15T11:28:15.995Z,10.70
2023-04-15T11:30:43.746Z,10.70
2023-04-15T11:33:12.546Z,10.70
2023-04-15T11:35:41.449Z,10.70
2023-04-15T11:38:16.807Z,10.70
2023-04-15T11:40:46.841Z,10.70
2023-04-15T11:43:16.076Z,10.90
2023-04-15T11:45:56.243Z,10.70
2023-04-15T11:48:33.873Z,10.70
2023-04-15T11:51:01.964Z,10.70
2023-04-15T11:53:47.245Z,10.80
2023-04-15T11:56:26.011Z,10.80
2023-04-15T11:58:56.820Z,10.90
2023-04-15T12:01:42.690Z,10.90
2023-04-15T12:04:20.883Z,11.00
2023-04-15T12:06:50.212Z,11.20
2023-04-15T12:09:17.171Z,11.00
2023-04-15T12:11:48.261Z,11.00
2023-04-15T12:14:32.511Z,11.00
2023-04-15T12:17:04.730Z,11.30
2023-04-15T12:19:38.826Z,11.30
2023-04-15T12:22:17.011Z,11.30
2023-04-15T12:24:47.815Z,11.10
2023-04-15T12:27:16.570Z,11.10
2023-04-15T12:29:44.118Z,11.10
2023-04-15T12:32:16.626Z,11.20
2023-04-15T12:34:45.064Z,11.50
2023-04-15T12:37:14.158Z,11.60
2023-04-15T12:39:42.947Z,11.40
2023-04-15T12:42:10.865Z,11.40
2023-04-15T12:44:39.048Z,11.40
2023-04-15T12:47:07.764Z,11.50
2023-04-15T12:49:34.999Z,11.60
2023-04-15T12:52:03.018Z,11.70
2023-04-15T12:54:31.415Z,11.80
2023-04-15T12:56:59.257Z,11.90
2023-04-15T12:59:26.268Z,12.00
2023-04-15T13:01:54.152Z,12.30
2023-04-15T13:04:22.081Z,12.00
2023-04-15T13:06:49.436Z,12.10
2023-04-15T13:09:16.394Z,12.20
2023-04-15T13:11:43.779Z,12.50
2023-04-15T13:14:13.915Z,12.70
2023-04-15T13:16:41.508Z,12.60
2023-04-15T13:19:08.676Z,12.50
2023-04-15T13:21:45.657Z,12.50
2023-04-15T13:24:13.115Z,12.60
2023-04-15T13:26:40.050Z,12.70
2023-04-15T13:29:11.613Z,12.80
2023-04-15T13:31:38.981Z,12.80
2023-04-15T13:34:06.261Z,13.10
2023-04-15T13:36:33.359Z,13.00
2023-04-15T13:39:00.585Z,13.20
2023-04-15T13:41:27.396Z,13.40
2023-04-15T13:43:54.334Z,13.60
2023-04-15T13:46:22.325Z,13.60
2023-04-15T13:48:50.013Z,13.60
2023-04-15T13:51:18.076Z,13.70
2023-04-15T13:53:45.101Z,13.70
2023-04-15T13:56:12.326Z,13.70
2023-04-15T13:58:44.021Z,13.80
2023-04-15T14:01:11.406Z,13.80
2023-04-15T14:03:38.531Z,13.90
2023-04-15T14:06:08.719Z,13.90
2023-04-15T14:08:35.692Z,13.80
2023-04-15T14:11:02.727Z,13.70
2023-04-15T14:13:29.985Z,13.70
2023-04-15T14:15:57.274Z,13.60
2023-04-15T14:18:24.251Z,13.70
2023-04-15T14:20:51.126Z,13.50
2023-04-15T14:23:17.946Z,13.50
2023-04-15T14:25:46.737Z,13.50
2023-04-15T14:28:15.246Z,13.70
2023-04-15T14:30:42.420Z,13.40
2023-04-15T14:33:09.337Z,13.50
2023-04-15T14:35:36.692Z,13.60
2023-04-15T14:38:03.908Z,13.30
2023-04-15T14:40:31.204Z,13.30
2023-04-15T14:42:58.197Z,13.20
2023-04-15T14:45:25.281Z,13.10
2023-04-15T14:47:53.391Z,13.30
2023-04-15T14:50:20.499Z,13.00
2023-04-15T14:52:47.981Z,13.00
2023-04-15T14:55:15.143Z,13.00
2023-04-15T14:57:42.841Z,12.90
2023-04-15T15:00:12.723Z,12.80
2023-04-15T15:02:42.319Z,12.70
2023-04-15T15:05:10.746Z,12.70
2023-04-15T15:07:39.384Z,12.70
2023-04-15T15:10:10.618Z,12.70
2023-04-15T15:12:40.683Z,12.60
2023-04-15T15:15:19.584Z,12.60
2023-04-15T15:17:54.930Z,12.50
2023-04-15T15:20:22.965Z,12.70
2023-04-15T15:22:49.892Z,12.50
2023-04-15T15:25:18.084Z,12.50
2023-04-15T15:27:48.294Z,12.80
2023-04-15T15:30:15.604Z,12.50
2023-04-15T15:32:43.321Z,12.50
2023-04-15T15:35:11.101Z,12.40
2023-04-15T15:37:38.165Z,12.30
2023-04-15T15:40:05.538Z,12.20
2023-04-15T15:42:32.731Z,12.20
2023-04-15T15:44:59.812Z,12.20
2023-04-15T15:47:26.917Z,12.20
2023-04-15T15:49:54.638Z,12.50
2023-04-15T15:52:21.663Z,12.20
2023-04-15T15:54:48.612Z,12.30
2023-04-15T15:57:15.490Z,12.20
2023-04-15T15:59:43.820Z,12.30
2023-04-15T16:02:12.000Z,12.20
2023-04-15T16:04:39.795Z,12.20
2023-04-15T16:07:06.888Z,12.20
2023-04-15T16:09:33.704Z,12.30
2023-04-15T16:12:01.381Z,12.50
2023-04-15T16:14:28.241Z,12.40
2023-04-15T16:16:55.300Z,12.50
2023-04-15T16:19:22.184Z,12.40
2023-04-15T16:21:49.176Z,12.40
2023-04-15T16:24:15.997Z,12.40
2023-04-15T16:26:42.942Z,12.30
2023-04-15T16:29:09.742Z,12.50
2023-04-15T16:31:38.592Z,12.40
2023-04-15T16:34:06.293Z,12.40
2023-04-15T16:36:35.255Z,12.40
2023-04-15T16:39:02.333Z,12.50
2023-04-15T16:41:29.458Z,12.40
2023-04-15T16:43:58.522Z,12.40
2023-04-15T16:46:25.539Z,12.30
2023-04-15T16:48:52.460Z,12.40
2023-04-15T16:51:19.352Z,12.40
2023-04-15T16:53:46.157Z,12.40
2023-04-15T16:56:13.003Z,12.40
2023-04-15T16:58:39.955Z,12.60
2023-04-15T17:01:06.970Z,12.50
2023-04-15T17:03:34.067Z,12.50
2023-04-15T17:06:01.229Z,12.40
2023-04-15T17:08:28.122Z,12.40
2023-04-15T17:10:55.195Z,12.40
2023-04-15T17:13:22.047Z,12.50
2023-04-15T17:15:49.002Z,12.40
2023-04-15T17:18:15.914Z,12.40
2023-04-15T17:20:42.792Z,12.40
2023-04-15T17:23:09.619Z,12.40
2023-04-15T17:25:37.412Z,12.50
2023-04-15T17:28:04.493Z,12.50
2023-04-15T17:30:34.380Z,12.50
2023-04-15T17:33:01.840Z,12.50
2023-04-15T17:35:28.793Z,12.60
2023-04-15T17:37:55.882Z,12.60
2023-04-15T17:40:22.744Z,12.60
2023-04-15T17:42:49.565Z,12.70
2023-04-15T17:45:16.556Z,12.70
2023-04-15T17:47:43.556Z,12.70
2023-04-15T17:50:11.011Z,12.70
2023-04-15T17:52:37.906Z,12.80
2023-04-15T17:55:05.300Z,12.80
2023-04-15T17:57:32.175Z,12.80
2023-04-15T17:59:59.096Z,12.90
2023-04-15T18:02:26.238Z,12.80
2023-04-15T18:04:53.570Z,12.80
2023-04-15T18:07:20.729Z,12.70
2023-04-15T18:09:47.725Z,12.80
2023-04-15T18:12:14.672Z,12.80
2023-04-15T18:14:41.522Z,12.80
2023-04-15T18:17:08.470Z,12.80
2023-04-15T18:19:35.439Z,12.80
2023-04-15T18:22:03.217Z,12.90
2023-04-15T18:24:30.470Z,12.90
2023-04-15T18:26:57.563Z,13.00
2023-04-15T18:29:25.261Z,12.90
2023-04-15T18:31:52.493Z,12.90
2023-04-15T18:34:19.346Z,12.90
2023-04-15T18:36:46.526Z,12.80
2023-04-15T18:39:13.537Z,12.90
2023-04-15T18:41:40.568Z,12.80
2023-04-15T18:44:07.448Z,12.80
2023-04-15T18:46:34.390Z,12.80
2023-04-15T18:49:01.364Z,12.70
2023-04-15T18:51:28.374Z,12.70
2023-04-15T18:53:55.602Z,12.90
2023-04-15T18:56:22.512Z,12.70
2023-04-15T18:59:18.478Z,12.70
2023-04-15T19:01:36.673Z,12.50
2023-04-15T19:04:03.778Z,12.60
2023-04-15T19:06:30.807Z,12.60
2023-04-15T19:08:58.524Z,12.70
2023-04-15T19:11:26.155Z,12.70
2023-04-15T19:13:53.077Z,12.70
2023-04-15T19:16:20.462Z,12.70
2023-04-15T19:18:47.462Z,12.70
2023-04-15T19:21:14.729Z,12.70
2023-04-15T19:23:42.981Z,12.60
2023-04-15T19:26:10.316Z,12.70
2023-04-15T19:28:37.274Z,12.60
2023-04-15T19:31:04.526Z,12.60
2023-04-15T19:33:31.927Z,12.60
2023-04-15T19:36:04.606Z,12.60
2023-04-15T19:38:33.006Z,12.60
2023-04-15T19:41:00.356Z,12.60
2023-04-15T19:43:28.844Z,12.70
2023-04-15T19:45:56.354Z,12.60
2023-04-15T19:48:24.739Z,12.70
2023-04-15T19:50:52.177Z,12.60
2023-04-15T19:53:19.284Z,12.50
2023-04-15T19:55:47.502Z,12.50
2023-04-15T19:58:14.868Z,12.50
2023-04-15T20:00:41.737Z,12.40
2023-04-15T20:03:10.518Z,12.40
2023-04-15T20:05:37.685Z,12.50
2023-04-15T20:08:05.029Z,12.40
2023-04-15T20:10:32.113Z,12.40
2023-04-15T20:12:59.223Z,12.40
2023-04-15T20:15:26.391Z,12.40
2023-04-15T20:17:53.295Z,12.40
2023-04-15T20:20:20.506Z,12.40
2023-04-15T20:22:47.886Z,12.30
2023-04-15T20:25:14.897Z,12.30
2023-04-15T20:27:41.887Z,12.30
2023-04-15T20:30:09.185Z,12.30
2023-04-15T20:32:36.467Z,12.40
2023-04-15T20:35:04.795Z,12.40
2023-04-15T20:37:33.663Z,12.30
2023-04-15T20:40:01.293Z,12.30
2023-04-15T20:42:32.151Z,12.40
2023-04-15T20:44:59.316Z,12.30
2023-04-15T20:47:26.478Z,12.30
2023-04-15T20:49:53.829Z,12.30
2023-04-15T20:52:20.855Z,12.30
2023-04-15T20:54:48.035Z,12.40
2023-04-15T20:57:14.963Z,12.30
2023-04-15T20:59:41.817Z,12.40
2023-04-15T21:02:08.907Z,12.40
2023-04-15T21:04:37.983Z,12.40
2023-04-15T21:07:05.128Z,12.40
2023-04-15T21:09:32.111Z,12.40
2023-04-15T21:12:01.612Z,12.40
2023-04-15T21:14:29.414Z,12.40
2023-04-15T21:16:59.350Z,12.40
2023-04-15T21:19:26.447Z,12.50
2023-04-15T21:21:53.392Z,12.30
2023-04-15T21:24:20.601Z,12.30
2023-04-15T21:26:47.494Z,12.30
2023-04-15T21:29:14.604Z,12.30
2023-04-15T21:31:42.021Z,12.30
2023-04-15T21:34:09.647Z,12.30
2023-04-15T21:36:38.110Z,12.30
2023-04-15T21:39:05.883Z,12.30
2023-04-15T21:41:33.323Z,12.30
2023-04-15T21:44:00.300Z,12.20
2023-04-15T21:46:32.991Z,12.20
2023-04-15T21:49:02.182Z,12.20
2023-04-15T21:51:29.068Z,12.20
2023-04-15T21:53:56.149Z,12.10
2023-04-15T21:56:24.268Z,12.10
2023-04-15T21:58:54.299Z,12.30
2023-04-15T22:01:21.358Z,12.10
2023-04-15T22:03:48.607Z,12.10
2023-04-15T22:06:15.975Z,12.10
2023-04-15T22:08:53.052Z,12.10
2023-04-15T22:11:28.156Z,12.10
2023-04-15T22:13:57.129Z,12.10
2023-04-15T22:16:26.306Z,12.10
2023-04-15T22:18:53.588Z,12.10
2023-04-15T22:21:20.606Z,12.10
2023-04-15T22:23:48.492Z,12.10
2023-04-15T22:26:15.558Z,12.20
2023-04-15T22:28:42.493Z,12.00
2023-04-15T22:31:09.829Z,11.90
2023-04-15T22:33:36.910Z,12.10
2023-04-15T22:36:03.844Z,11.80
2023-04-15T22:38:30.912Z,11.80
2023-04-15T22:40:58.200Z,11.80
2023-04-15T22:43:25.872Z,11.70
2023-04-15T22:45:55.532Z,11.70
2023-04-15T22:48:23.053Z,11.70
2023-04-15T22:50:50.205Z,11.80
2023-04-15T22:53:17.740Z,11.70
2023-04-15T22:55:46.498Z,11.60
2023-04-15T22:58:14.207Z,11.80
2023-04-15T23:00:41.099Z,11.50
2023-04-15T23:03:08.222Z,11.40
2023-04-15T23:05:35.538Z,11.60
2023-04-15T23:08:02.553Z,11.40
2023-04-15T23:13:36.506Z,11.30
2023-04-15T23:16:05.161Z,11.30
2023-04-15T23:18:32.657Z,11.20
2023-04-15T23:21:02.185Z,11.00
2023-04-15T23:23:29.253Z,11.20
2023-04-15T23:25:56.300Z,11.10
2023-04-15T23:28:23.677Z,11.10
2023-04-15T23:30:50.678Z,11.10
2023-04-15T23:33:17.675Z,11.10
2023-04-15T23:35:44.824Z,11.00
2023-04-15T23:38:11.960Z,10.90
2023-04-15T23:40:39.090Z,11.00
2023-04-15T23:43:06.048Z,11.10
2023-04-15T23:45:33.088Z,11.00
2023-04-15T23:48:00.375Z,11.00
2023-04-15T23:50:28.378Z,10.90
2023-04-15T23:52:55.635Z,10.90
2023-04-15T23:55:22.756Z,10.90
2023-04-15T23:57:49.991Z,10.90
